createdAt,value
2022-11-10T00:02:31.797Z,30.57
2022-11-10T00:07:54.804Z,31.33
2022-11-10T00:13:21.193Z,30.40
2022-11-10T00:18:43.941Z,29.77
2022-11-10T00:24:06.274Z,28.35
2022-11-10T00:29:28.833Z,28.47
2022-11-10T00:34:51.176Z,28.20
2022-11-10T00:40:13.560Z,27.87
2022-11-10T00:45:35.733Z,27.25
2022-11-10T00:50:57.995Z,27.57
2022-11-10T00:56:20.215Z,27.23
2022-11-10T01:01:43.258Z,25.05
2022-11-10T01:07:05.613Z,26.55
2022-11-10T01:12:27.825Z,25.23
2022-11-10T01:17:50.220Z,24.93
2022-11-10T01:23:12.464Z,23.90
2022-11-10T01:28:34.729Z,24.27
2022-11-10T01:33:57.273Z,22.63
2022-11-10T01:39:19.908Z,22.55
2022-11-10T01:44:44.211Z,22.50
2022-11-10T01:50:06.844Z,21.60
2022-11-10T01:55:30.403Z,22.27
2022-11-10T02:00:52.683Z,21.82
2022-11-10T02:06:16.144Z,20.73
2022-11-10T02:11:40.135Z,21.10
2022-11-10T02:17:02.572Z,20.88
2022-11-10T02:22:25.284Z,19.95
2022-11-10T02:27:47.642Z,20.20
2022-11-10T02:33:09.923Z,19.67
2022-11-10T02:38:32.595Z,19.27
2022-11-10T02:43:55.537Z,19.77
2022-11-10T02:49:17.853Z,19.20
2022-11-10T02:54:40.033Z,18.87
2022-11-10T03:00:02.192Z,19.25
2022-11-10T03:05:24.511Z,19.27
2022-11-10T03:10:48.090Z,18.85
2022-11-10T03:16:10.787Z,19.85
2022-11-10T03:21:33.219Z,18.15
2022-11-10T03:26:55.410Z,18.47
2022-11-10T03:32:17.690Z,19.03
2022-11-10T03:37:39.870Z,19.43
2022-11-10T03:43:03.042Z,18.60
2022-11-10T03:48:25.814Z,18.57
2022-11-10T03:53:48.071Z,19.63
2022-11-10T03:59:10.267Z,19.20
2022-11-10T04:04:50.083Z,18.60
2022-11-10T04:10:12.930Z,20.10
2022-11-10T04:15:44.628Z,18.87
2022-11-10T04:21:08.477Z,18.12
2022-11-10T04:26:33.910Z,18.42
2022-11-10T04:31:58.693Z,19.17
2022-11-10T04:37:20.893Z,18.87
2022-11-10T04:42:43.068Z,18.05
2022-11-10T04:48:05.299Z,18.52
2022-11-10T04:53:27.490Z,17.98
2022-11-10T04:58:49.844Z,17.77
2022-11-10T05:04:12.701Z,18.45
2022-11-10T05:09:34.865Z,17.62
2022-11-10T05:14:57.045Z,18.27
2022-11-10T05:20:20.242Z,17.20
2022-11-10T05:25:45.066Z,17.95
2022-11-10T05:31:07.251Z,17.27
2022-11-10T05:36:29.796Z,17.32
2022-11-10T05:41:52.459Z,16.32
2022-11-10T05:47:14.651Z,16.75
2022-11-10T05:52:36.971Z,17.37
2022-11-10T05:58:04.110Z,17.05
2022-11-10T06:03:34.160Z,17.45
2022-11-10T06:08:56.960Z,18.00
2022-11-10T06:14:19.418Z,16.97
2022-11-10T06:19:41.697Z,16.90
2022-11-10T06:25:04.060Z,16.10
2022-11-10T06:30:27.066Z,15.58
2022-11-10T06:35:49.426Z,16.12
2022-11-10T06:41:11.695Z,14.50
2022-11-10T06:46:37.005Z,14.05
2022-11-10T06:51:58.485Z,13.65
2022-11-10T06:57:20.689Z,14.45
2022-11-10T07:02:43.305Z,12.63
2022-11-10T07:08:09.154Z,12.23
2022-11-10T07:13:31.934Z,12.23
2022-11-10T07:18:54.890Z,11.70
2022-11-10T07:24:17.672Z,9.95
2022-11-10T07:29:40.316Z,9.98
2022-11-10T07:35:02.601Z,9.40
2022-11-10T07:40:25.430Z,8.45
2022-11-10T07:45:47.984Z,8.38
2022-11-10T07:51:10.435Z,7.80
2022-11-10T07:56:33.366Z,6.87
2022-11-10T08:01:55.740Z,6.65
2022-11-10T08:07:18.299Z,6.92
2022-11-10T08:12:40.486Z,5.72
2022-11-10T08:18:06.436Z,5.15
2022-11-10T08:23:29.339Z,5.08
2022-11-10T08:28:51.570Z,4.55
2022-11-10T08:34:14.877Z,4.65
2022-11-10T08:39:39.568Z,4.50
2022-11-10T08:45:01.259Z,4.90
2022-11-10T08:50:24.380Z,4.53
2022-11-10T08:55:46.877Z,4.25
2022-11-10T09:01:09.515Z,4.20
2022-11-10T09:06:31.923Z,4.35
2022-11-10T09:11:54.166Z,3.83
2022-11-10T09:17:17.162Z,3.60
2022-11-10T09:22:41.057Z,3.60
2022-11-10T09:28:04.574Z,3.35
2022-11-10T09:33:28.070Z,3.27
2022-11-10T09:38:50.450Z,3.35
2022-11-10T09:44:20.944Z,2.77
2022-11-10T09:50:06.592Z,2.92
2022-11-10T09:55:48.901Z,3.00
2022-11-10T10:01:28.384Z,3.08
2022-11-10T10:07:10.759Z,3.27
2022-11-10T10:12:51.222Z,3.15
2022-11-10T10:18:58.836Z,3.10
2022-11-10T10:24:23.354Z,2.85
2022-11-10T10:29:55.113Z,3.10
2022-11-10T10:35:20.923Z,2.92
2022-11-10T10:40:43.490Z,2.92
2022-11-10T10:46:24.256Z,3.00
2022-11-10T10:51:48.460Z,2.92
2022-11-10T10:57:31.263Z,2.40
2022-11-10T11:03:04.118Z,2.35
2022-11-10T11:08:39.058Z,2.80
2022-11-10T11:14:03.101Z,2.30
2022-11-10T11:19:28.442Z,2.60
2022-11-10T11:25:16.683Z,1.97
2022-11-10T11:30:59.573Z,2.00
2022-11-10T11:36:32.602Z,2.42
2022-11-10T11:42:05.963Z,2.07
2022-11-10T11:48:02.604Z,2.33
2022-11-10T11:53:49.464Z,1.60
2022-11-10T11:59:31.638Z,1.70
2022-11-10T12:05:15.615Z,1.62
2022-11-10T12:10:49.029Z,1.70
2022-11-10T12:16:37.523Z,1.67
2022-11-10T12:22:19.968Z,2.37
2022-11-10T12:27:56.950Z,1.80
2022-11-10T12:33:39.162Z,1.87
2022-11-10T12:39:34.175Z,1.67
2022-11-10T12:45:28.159Z,1.83
2022-11-10T12:51:10.725Z,2.10
2022-11-10T12:56:40.293Z,1.80
2022-11-10T13:02:09.071Z,2.50
2022-11-10T13:07:34.095Z,1.90
2022-11-10T13:13:17.872Z,1.87
2022-11-10T13:18:50.946Z,2.13
2022-11-10T13:24:22.068Z,2.03
2022-11-10T13:30:10.429Z,2.30
2022-11-10T13:35:56.043Z,1.93
2022-11-10T13:41:27.461Z,1.93
2022-11-10T13:46:57.734Z,1.70
2022-11-10T13:52:30.088Z,2.00
2022-11-10T13:58:17.543Z,2.05
2022-11-10T14:04:02.421Z,2.30
2022-11-10T14:09:41.888Z,2.90
2022-11-10T14:15:36.060Z,2.80
2022-11-10T14:21:04.587Z,2.57
2022-11-10T14:26:42.233Z,2.20
2022-11-10T14:32:05.471Z,2.63
2022-11-10T14:37:37.004Z,2.90
2022-11-10T14:43:01.440Z,2.60
2022-11-10T14:48:28.174Z,2.40
2022-11-10T14:53:54.618Z,2.87
2022-11-10T14:59:20.695Z,2.98
2022-11-10T15:04:46.300Z,3.05
2022-11-10T15:10:33.982Z,2.33
2022-11-10T15:15:56.370Z,2.08
2022-11-10T15:21:25.518Z,4.90
2022-11-10T15:26:51.250Z,3.00
2022-11-10T15:32:15.337Z,3.80
2022-11-10T15:37:45.286Z,3.35
2022-11-10T15:43:28.832Z,3.10
2022-11-10T15:48:55.346Z,3.15
2022-11-10T15:54:19.868Z,4.03
2022-11-10T15:59:42.259Z,5.90
2022-11-10T16:05:06.256Z,7.00
2022-11-10T16:10:30.743Z,4.87
2022-11-10T16:15:53.715Z,4.03
2022-11-10T16:21:20.245Z,4.87
2022-11-10T16:26:43.850Z,4.85
2022-11-10T16:32:06.280Z,4.62
2022-11-10T16:37:34.069Z,9.90
2022-11-10T16:42:54.889Z,5.85
2022-11-10T16:48:20.659Z,5.37
2022-11-10T16:53:44.646Z,5.90
2022-11-10T16:59:07.025Z,5.12
2022-11-10T17:04:31.882Z,6.20
2022-11-10T17:09:54.200Z,7.43
2022-11-10T17:15:20.511Z,7.22
2022-11-10T17:20:49.415Z,8.38
2022-11-10T17:26:14.076Z,7.53
2022-11-10T17:31:36.446Z,7.03
2022-11-10T17:36:59.059Z,9.20
2022-11-10T17:42:27.453Z,8.00
2022-11-10T17:47:50.303Z,9.75
2022-11-10T17:53:19.756Z,8.80
2022-11-10T17:58:42.477Z,10.70
2022-11-10T18:04:05.042Z,9.17
2022-11-10T18:09:27.424Z,9.23
2022-11-10T18:14:50.077Z,9.38
2022-11-10T18:20:12.664Z,8.95
2022-11-10T18:25:34.923Z,9.03
2022-11-10T18:30:57.118Z,9.10
2022-11-10T18:36:19.600Z,9.35
2022-11-10T18:41:53.138Z,9.45
2022-11-10T18:47:18.248Z,9.58
2022-11-10T18:52:40.443Z,10.93
2022-11-10T18:58:03.290Z,9.73
2022-11-10T19:03:25.951Z,9.20
2022-11-10T19:08:48.992Z,8.65
2022-11-10T19:14:11.868Z,10.05
2022-11-10T19:19:34.473Z,10.63
2022-11-10T19:25:12.065Z,8.05
2022-11-10T19:30:21.456Z,9.95
2022-11-10T19:35:49.832Z,8.00
2022-11-10T19:41:14.575Z,8.33
2022-11-10T19:46:39.622Z,9.03
2022-11-10T19:52:02.367Z,10.08
2022-11-10T19:57:24.628Z,9.00
2022-11-10T20:02:47.209Z,10.30
2022-11-10T20:08:15.736Z,10.03
2022-11-10T20:13:37.947Z,11.50
2022-11-10T20:19:00.141Z,11.50
2022-11-10T20:24:23.374Z,10.75
2022-11-10T20:29:46.139Z,10.88
2022-11-10T20:35:08.637Z,9.50
2022-11-10T20:40:43.863Z,11.18
2022-11-10T20:45:58.721Z,10.75
2022-11-10T20:51:25.291Z,8.90
2022-11-10T20:56:47.616Z,9.85
2022-11-10T21:02:09.976Z,11.28
2022-11-10T21:07:32.489Z,10.60
2022-11-10T21:12:55.135Z,9.35
2022-11-10T21:18:17.658Z,10.88
2022-11-10T21:23:39.896Z,9.40
2022-11-10T21:29:02.201Z,10.45
2022-11-10T21:34:24.892Z,9.23
2022-11-10T21:39:47.207Z,9.05
2022-11-10T21:45:10.109Z,8.50
2022-11-10T21:50:32.727Z,8.88
2022-11-10T21:55:55.726Z,9.27
2022-11-10T22:01:24.829Z,9.50
2022-11-10T22:07:04.882Z,9.57
2022-11-10T22:12:46.586Z,8.90
2022-11-10T22:18:26.687Z,8.35
2022-11-10T22:24:06.582Z,8.03
2022-11-10T22:29:32.622Z,7.27
2022-11-10T22:34:55.300Z,6.53
2022-11-10T22:40:38.578Z,6.33
2022-11-10T22:46:02.374Z,6.42
2022-11-10T22:51:24.627Z,5.67
2022-11-10T22:56:48.940Z,6.40
2022-11-10T23:02:21.158Z,6.67
2022-11-10T23:07:43.556Z,6.93
2022-11-10T23:13:08.949Z,6.63
2022-11-10T23:18:31.787Z,6.20
2022-11-10T23:23:56.791Z,6.40
2022-11-10T23:29:19.045Z,6.10
2022-11-10T23:34:41.322Z,6.00
2022-11-10T23:40:03.473Z,6.25
2022-11-10T23:45:32.843Z,6.53
2022-11-10T23:50:51.456Z,5.67
2022-11-10T23:56:25.070Z,5.60
